sensor_id;sensor_type;location;lat;lon;timestamp;temperature;humidity
25985;DHT22;40000;53.848;10.658;2022-10-18T00:03:13;13.60;99.90
25985;DHT22;40000;53.848;10.658;2022-10-18T00:08:16;13.60;99.90
25985;DHT22;40000;53.848;10.658;2022-10-18T00:13:17;13.60;99.90
25985;DHT22;40000;53.848;10.658;2022-10-18T00:18:18;13.50;99.90
25985;DHT22;40000;53.848;10.658;2022-10-18T00:23:19;13.40;99.90
25985;DHT22;40000;53.848;10.658;2022-10-18T00:28:20;13.30;99.90
25985;DHT22;40000;53.848;10.658;2022-10-18T00:33:20;13.30;99.90
25985;DHT22;40000;53.848;10.658;2022-10-18T00:38:21;13.20;99.90
25985;DHT22;40000;53.848;10.658;2022-10-18T00:43:22;13.30;99.90
25985;DHT22;40000;53.848;10.658;2022-10-18T00:48:23;13.30;99.90
25985;DHT22;40000;53.848;10.658;2022-10-18T00:53:23;13.20;99.90
25985;DHT22;40000;53.848;10.658;2022-10-18T00:58:24;13.30;99.90
25985;DHT22;40000;53.848;10.658;2022-10-18T01:03:25;13.30;99.90
25985;DHT22;40000;53.848;10.658;2022-10-18T01:35:30;13.50;99.90
25985;DHT22;40000;53.848;10.658;2022-10-18T01:40:34;13.50;99.90
25985;DHT22;40000;53.848;10.658;2022-10-18T01:45:36;13.50;99.90
25985;DHT22;40000;53.848;10.658;2022-10-18T01:50:37;13.50;99.90
25985;DHT22;40000;53.848;10.658;2022-10-18T01:55:43;13.40;99.90
25985;DHT22;40000;53.848;10.658;2022-10-18T02:00:59;13.40;99.90
25985;DHT22;40000;53.848;10.658;2022-10-18T02:06:19;13.40;99.90
25985;DHT22;40000;53.848;10.658;2022-10-18T02:11:28;13.30;99.90
25985;DHT22;40000;53.848;10.658;2022-10-18T02:16:34;13.30;99.90
25985;DHT22;40000;53.848;10.658;2022-10-18T02:21:41;13.20;99.90
25985;DHT22;40000;53.848;10.658;2022-10-18T02:26:43;13.20;99.90
25985;DHT22;40000;53.848;10.658;2022-10-18T02:31:46;13.10;99.90
25985;DHT22;40000;53.848;10.658;2022-10-18T02:36:54;13.10;99.90
25985;DHT22;40000;53.848;10.658;2022-10-18T02:41:57;13.00;99.90
25985;DHT22;40000;53.848;10.658;2022-10-18T02:46:59;13.10;99.90
25985;DHT22;40000;53.848;10.658;2022-10-18T02:52:00;13.10;99.90
25985;DHT22;40000;53.848;10.658;2022-10-18T02:57:00;13.10;99.90
25985;DHT22;40000;53.848;10.658;2022-10-18T03:02:01;13.00;99.90
25985;DHT22;40000;53.848;10.658;2022-10-18T03:07:02;12.90;99.90
25985;DHT22;40000;53.848;10.658;2022-10-18T03:12:03;12.80;99.90
25985;DHT22;40000;53.848;10.658;2022-10-18T03:17:04;12.70;99.90
25985;DHT22;40000;53.848;10.658;2022-10-18T03:22:04;12.60;99.90
25985;DHT22;40000;53.848;10.658;2022-10-18T03:27:05;12.60;99.90
25985;DHT22;40000;53.848;10.658;2022-10-18T03:32:06;12.60;99.90
25985;DHT22;40000;53.848;10.658;2022-10-18T03:37:07;12.50;99.90
25985;DHT22;40000;53.848;10.658;2022-10-18T03:42:07;12.50;99.90
25985;DHT22;40000;53.848;10.658;2022-10-18T03:47:08;12.50;99.90
25985;DHT22;40000;53.848;10.658;2022-10-18T03:52:09;12.40;99.90
25985;DHT22;40000;53.848;10.658;2022-10-18T03:57:09;12.40;99.90
25985;DHT22;40000;53.848;10.658;2022-10-18T04:02:10;12.50;99.90
25985;DHT22;40000;53.848;10.658;2022-10-18T04:07:11;12.40;99.90
25985;DHT22;40000;53.848;10.658;2022-10-18T04:12:11;12.30;99.90
25985;DHT22;40000;53.848;10.658;2022-10-18T04:17:12;12.30;99.90
25985;DHT22;40000;53.848;10.658;2022-10-18T04:22:13;12.30;99.90
25985;DHT22;40000;53.848;10.658;2022-10-18T04:27:14;12.30;99.90
25985;DHT22;40000;53.848;10.658;2022-10-18T04:32:15;12.30;99.90
25985;DHT22;40000;53.848;10.658;2022-10-18T04:37:16;12.40;99.90
25985;DHT22;40000;53.848;10.658;2022-10-18T04:42:17;12.30;99.90
25985;DHT22;40000;53.848;10.658;2022-10-18T04:47:17;12.30;99.90
25985;DHT22;40000;53.848;10.658;2022-10-18T04:52:18;12.20;99.90
25985;DHT22;40000;53.848;10.658;2022-10-18T04:57:19;12.20;99.90
25985;DHT22;40000;53.848;10.658;2022-10-18T05:02:20;12.20;99.90
25985;DHT22;40000;53.848;10.658;2022-10-18T05:07:20;12.20;99.90
25985;DHT22;40000;53.848;10.658;2022-10-18T05:12:21;12.20;99.90
25985;DHT22;40000;53.848;10.658;2022-10-18T05:17:22;12.00;99.90
25985;DHT22;40000;53.848;10.658;2022-10-18T05:22:22;12.00;99.90
25985;DHT22;40000;53.848;10.658;2022-10-18T05:27:23;11.90;99.90
25985;DHT22;40000;53.848;10.658;2022-10-18T05:32:24;11.80;99.90
25985;DHT22;40000;53.848;10.658;2022-10-18T05:37:24;11.80;99.90
25985;DHT22;40000;53.848;10.658;2022-10-18T05:42:25;11.90;99.90
25985;DHT22;40000;53.848;10.658;2022-10-18T05:47:26;12.00;99.90
25985;DHT22;40000;53.848;10.658;2022-10-18T05:52:27;12.20;99.90
25985;DHT22;40000;53.848;10.658;2022-10-18T05:57:28;12.40;99.90
25985;DHT22;40000;53.848;10.658;2022-10-18T06:02:29;12.60;99.90
25985;DHT22;40000;53.848;10.658;2022-10-18T06:07:29;12.60;99.90
25985;DHT22;40000;53.848;10.658;2022-10-18T06:12:30;12.70;99.90
25985;DHT22;40000;53.848;10.658;2022-10-18T06:17:30;12.80;99.90
25985;DHT22;40000;53.848;10.658;2022-10-18T06:22:31;12.90;99.90
25985;DHT22;40000;53.848;10.658;2022-10-18T06:27:33;12.90;99.90
25985;DHT22;40000;53.848;10.658;2022-10-18T06:32:34;12.90;99.90
25985;DHT22;40000;53.848;10.658;2022-10-18T06:37:34;13.00;99.90
25985;DHT22;40000;53.848;10.658;2022-10-18T06:42:36;13.00;99.90
25985;DHT22;40000;53.848;10.658;2022-10-18T06:47:37;13.00;99.90
25985;DHT22;40000;53.848;10.658;2022-10-18T06:52:38;13.10;99.90
25985;DHT22;40000;53.848;10.658;2022-10-18T06:57:40;13.10;99.90
25985;DHT22;40000;53.848;10.658;2022-10-18T07:02:41;13.10;99.90
25985;DHT22;40000;53.848;10.658;2022-10-18T07:07:41;13.20;99.90
25985;DHT22;40000;53.848;10.658;2022-10-18T07:12:42;13.20;99.90
25985;DHT22;40000;53.848;10.658;2022-10-18T07:17:43;13.20;99.90
25985;DHT22;40000;53.848;10.658;2022-10-18T07:22:47;13.30;99.90
25985;DHT22;40000;53.848;10.658;2022-10-18T07:27:47;13.30;99.90
25985;DHT22;40000;53.848;10.658;2022-10-18T07:32:50;13.40;99.90
25985;DHT22;40000;53.848;10.658;2022-10-18T07:37:51;13.50;99.90
25985;DHT22;40000;53.848;10.658;2022-10-18T07:42:52;13.60;99.90
25985;DHT22;40000;53.848;10.658;2022-10-18T07:47:56;13.60;99.90
25985;DHT22;40000;53.848;10.658;2022-10-18T07:52:57;13.70;99.90
25985;DHT22;40000;53.848;10.658;2022-10-18T07:57:59;13.80;99.90
25985;DHT22;40000;53.848;10.658;2022-10-18T08:03:00;13.80;99.90
25985;DHT22;40000;53.848;10.658;2022-10-18T08:08:01;13.80;99.90
25985;DHT22;40000;53.848;10.658;2022-10-18T08:13:02;13.90;99.90
25985;DHT22;40000;53.848;10.658;2022-10-18T08:18:02;13.90;99.90
25985;DHT22;40000;53.848;10.658;2022-10-18T08:23:03;14.10;99.90
25985;DHT22;40000;53.848;10.658;2022-10-18T08:28:05;14.20;99.90
25985;DHT22;40000;53.848;10.658;2022-10-18T08:33:06;14.20;99.90
25985;DHT22;40000;53.848;10.658;2022-10-18T08:38:07;14.20;99.90
25985;DHT22;40000;53.848;10.658;2022-10-18T08:48:34;14.40;99.90
25985;DHT22;40000;53.848;10.658;2022-10-18T08:53:52;14.40;99.90
25985;DHT22;40000;53.848;10.658;2022-10-18T08:58:53;14.50;99.90
25985;DHT22;40000;53.848;10.658;2022-10-18T09:20:23;14.60;99.90
25985;DHT22;40000;53.848;10.658;2022-10-18T09:25:35;14.70;99.90
25985;DHT22;40000;53.848;10.658;2022-10-18T09:36:15;14.60;99.90
25985;DHT22;40000;53.848;10.658;2022-10-18T09:41:20;14.40;99.90
25985;DHT22;40000;53.848;10.658;2022-10-18T09:46:28;14.40;99.90
25985;DHT22;40000;53.848;10.658;2022-10-18T09:51:37;14.50;99.90
25985;DHT22;40000;53.848;10.658;2022-10-18T10:02:19;14.90;99.90
25985;DHT22;40000;53.848;10.658;2022-10-18T10:07:40;15.00;99.90
25985;DHT22;40000;53.848;10.658;2022-10-18T10:12:42;14.90;99.90
25985;DHT22;40000;53.848;10.658;2022-10-18T10:17:50;14.90;99.90
25985;DHT22;40000;53.848;10.658;2022-10-18T10:23:08;14.90;99.90
25985;DHT22;40000;53.848;10.658;2022-10-18T10:28:19;14.90;99.90
25985;DHT22;40000;53.848;10.658;2022-10-18T10:33:36;15.00;99.90
25985;DHT22;40000;53.848;10.658;2022-10-18T10:38:37;15.30;99.90
25985;DHT22;40000;53.848;10.658;2022-10-18T10:43:38;15.60;99.90
25985;DHT22;40000;53.848;10.658;2022-10-18T10:48:54;15.60;99.90
25985;DHT22;40000;53.848;10.658;2022-10-18T10:54:11;15.50;99.90
25985;DHT22;40000;53.848;10.658;2022-10-18T10:59:17;15.40;99.90
25985;DHT22;40000;53.848;10.658;2022-10-18T11:04:28;15.50;99.90
25985;DHT22;40000;53.848;10.658;2022-10-18T11:20:21;15.40;99.90
25985;DHT22;40000;53.848;10.658;2022-10-18T11:47:30;15.90;99.90
25985;DHT22;40000;53.848;10.658;2022-10-18T11:58:08;16.10;99.90
25985;DHT22;40000;53.848;10.658;2022-10-18T12:08:35;16.30;99.90
25985;DHT22;40000;53.848;10.658;2022-10-18T12:18:58;16.30;99.90
25985;DHT22;40000;53.848;10.658;2022-10-18T12:29:20;16.30;99.90
25985;DHT22;40000;53.848;10.658;2022-10-18T12:34:35;16.30;99.90
25985;DHT22;40000;53.848;10.658;2022-10-18T12:40:08;16.30;99.90
25985;DHT22;40000;53.848;10.658;2022-10-18T12:50:35;16.40;99.90
25985;DHT22;40000;53.848;10.658;2022-10-18T12:55:40;16.60;99.90
25985;DHT22;40000;53.848;10.658;2022-10-18T13:11:25;17.00;99.90
25985;DHT22;40000;53.848;10.658;2022-10-18T13:32:15;16.70;99.90
25985;DHT22;40000;53.848;10.658;2022-10-18T13:37:22;16.60;99.90
25985;DHT22;40000;53.848;10.658;2022-10-18T13:42:30;16.70;99.90
25985;DHT22;40000;53.848;10.658;2022-10-18T13:47:36;16.80;99.90
25985;DHT22;40000;53.848;10.658;2022-10-18T13:58:08;16.90;99.90
25985;DHT22;40000;53.848;10.658;2022-10-18T14:08:48;16.40;99.90
25985;DHT22;40000;53.848;10.658;2022-10-18T14:19:44;16.30;99.90
25985;DHT22;40000;53.848;10.658;2022-10-18T14:24:56;16.30;99.90
25985;DHT22;40000;53.848;10.658;2022-10-18T14:30:16;16.20;99.90
25985;DHT22;40000;53.848;10.658;2022-10-18T14:35:30;16.10;99.90
25985;DHT22;40000;53.848;10.658;2022-10-18T14:40:36;16.00;99.90
25985;DHT22;40000;53.848;10.658;2022-10-18T14:45:39;16.00;99.90
25985;DHT22;40000;53.848;10.658;2022-10-18T14:50:43;15.90;99.90
25985;DHT22;40000;53.848;10.658;2022-10-18T14:55:54;15.90;99.90
25985;DHT22;40000;53.848;10.658;2022-10-18T15:00:56;15.80;99.90
25985;DHT22;40000;53.848;10.658;2022-10-18T15:06:00;15.70;99.90
25985;DHT22;40000;53.848;10.658;2022-10-18T15:11:02;15.50;99.90
25985;DHT22;40000;53.848;10.658;2022-10-18T15:16:04;15.30;99.90
25985;DHT22;40000;53.848;10.658;2022-10-18T15:21:21;15.30;99.90
25985;DHT22;40000;53.848;10.658;2022-10-18T15:26:28;15.20;99.90
25985;DHT22;40000;53.848;10.658;2022-10-18T15:31:41;15.10;99.90
25985;DHT22;40000;53.848;10.658;2022-10-18T15:36:44;14.90;99.90
25985;DHT22;40000;53.848;10.658;2022-10-18T15:41:52;14.80;99.90
25985;DHT22;40000;53.848;10.658;2022-10-18T15:47:09;14.70;99.90
25985;DHT22;40000;53.848;10.658;2022-10-18T15:52:40;14.50;99.90
25985;DHT22;40000;53.848;10.658;2022-10-18T15:57:42;14.40;99.90
25985;DHT22;40000;53.848;10.658;2022-10-18T16:02:43;14.30;99.90
25985;DHT22;40000;53.848;10.658;2022-10-18T16:07:43;14.10;99.90
25985;DHT22;40000;53.848;10.658;2022-10-18T16:12:44;13.90;99.90
25985;DHT22;40000;53.848;10.658;2022-10-18T16:17:46;13.60;99.90
25985;DHT22;40000;53.848;10.658;2022-10-18T16:22:47;13.40;99.90
25985;DHT22;40000;53.848;10.658;2022-10-18T16:27:47;13.30;99.90
25985;DHT22;40000;53.848;10.658;2022-10-18T16:32:48;13.40;99.90
25985;DHT22;40000;53.848;10.658;2022-10-18T16:37:49;13.50;99.90
25985;DHT22;40000;53.848;10.658;2022-10-18T16:42:49;13.60;99.90
25985;DHT22;40000;53.848;10.658;2022-10-18T16:47:50;13.60;99.90
25985;DHT22;40000;53.848;10.658;2022-10-18T16:52:51;13.60;99.90
25985;DHT22;40000;53.848;10.658;2022-10-18T16:57:51;13.50;99.90
25985;DHT22;40000;53.848;10.658;2022-10-18T17:02:52;13.50;99.90
25985;DHT22;40000;53.848;10.658;2022-10-18T17:07:53;13.50;99.90
25985;DHT22;40000;53.848;10.658;2022-10-18T17:12:53;13.50;99.90
25985;DHT22;40000;53.848;10.658;2022-10-18T17:17:54;13.40;99.90
25985;DHT22;40000;53.848;10.658;2022-10-18T17:22:55;13.40;99.90
25985;DHT22;40000;53.848;10.658;2022-10-18T17:27:55;13.40;99.90
25985;DHT22;40000;53.848;10.658;2022-10-18T17:32:56;13.40;99.90
25985;DHT22;40000;53.848;10.658;2022-10-18T17:37:57;13.50;99.90
25985;DHT22;40000;53.848;10.658;2022-10-18T17:42:58;13.50;99.90
25985;DHT22;40000;53.848;10.658;2022-10-18T17:47:59;13.50;99.90
25985;DHT22;40000;53.848;10.658;2022-10-18T17:53:00;13.50;99.90
25985;DHT22;40000;53.848;10.658;2022-10-18T17:58:01;13.60;99.90
25985;DHT22;40000;53.848;10.658;2022-10-18T18:03:01;13.60;99.90
25985;DHT22;40000;53.848;10.658;2022-10-18T18:08:02;13.70;99.90
25985;DHT22;40000;53.848;10.658;2022-10-18T18:13:03;13.70;99.90
25985;DHT22;40000;53.848;10.658;2022-10-18T18:18:03;13.70;99.90
25985;DHT22;40000;53.848;10.658;2022-10-18T18:23:04;13.60;99.90
25985;DHT22;40000;53.848;10.658;2022-10-18T18:28:05;13.50;99.90
25985;DHT22;40000;53.848;10.658;2022-10-18T18:33:05;13.40;99.90
25985;DHT22;40000;53.848;10.658;2022-10-18T18:38:06;13.40;99.90
25985;DHT22;40000;53.848;10.658;2022-10-18T18:43:07;13.40;99.90
25985;DHT22;40000;53.848;10.658;2022-10-18T18:48:08;13.30;99.90
25985;DHT22;40000;53.848;10.658;2022-10-18T18:53:09;13.30;99.90
25985;DHT22;40000;53.848;10.658;2022-10-18T18:58:10;13.30;99.90
25985;DHT22;40000;53.848;10.658;2022-10-18T19:03:11;13.20;99.90
25985;DHT22;40000;53.848;10.658;2022-10-18T19:08:12;13.20;99.90
25985;DHT22;40000;53.848;10.658;2022-10-18T19:13:13;13.20;99.90
25985;DHT22;40000;53.848;10.658;2022-10-18T19:18:13;13.30;99.90
25985;DHT22;40000;53.848;10.658;2022-10-18T19:23:14;13.40;99.90
25985;DHT22;40000;53.848;10.658;2022-10-18T19:28:15;13.40;99.90
25985;DHT22;40000;53.848;10.658;2022-10-18T19:33:15;13.30;99.90
25985;DHT22;40000;53.848;10.658;2022-10-18T19:38:21;13.20;99.90
25985;DHT22;40000;53.848;10.658;2022-10-18T19:43:21;13.20;99.90
25985;DHT22;40000;53.848;10.658;2022-10-18T19:48:22;13.00;99.90
25985;DHT22;40000;53.848;10.658;2022-10-18T19:53:23;12.80;99.90
25985;DHT22;40000;53.848;10.658;2022-10-18T19:58:24;12.60;99.90
25985;DHT22;40000;53.848;10.658;2022-10-18T20:03:26;12.40;99.90
25985;DHT22;40000;53.848;10.658;2022-10-18T20:08:31;12.30;99.90
25985;DHT22;40000;53.848;10.658;2022-10-18T20:13:33;12.20;99.90
25985;DHT22;40000;53.848;10.658;2022-10-18T20:18:34;11.90;99.90
25985;DHT22;40000;53.848;10.658;2022-10-18T20:23:36;11.80;99.90
25985;DHT22;40000;53.848;10.658;2022-10-18T20:28:38;11.60;99.90
25985;DHT22;40000;53.848;10.658;2022-10-18T20:33:39;11.50;99.90
25985;DHT22;40000;53.848;10.658;2022-10-18T20:38:43;11.30;99.90
25985;DHT22;40000;53.848;10.658;2022-10-18T20:43:52;11.10;99.90
25985;DHT22;40000;53.848;10.658;2022-10-18T20:48:55;11.10;99.90
25985;DHT22;40000;53.848;10.658;2022-10-18T20:53:56;11.00;99.90
25985;DHT22;40000;53.848;10.658;2022-10-18T20:58:57;10.90;99.90
25985;DHT22;40000;53.848;10.658;2022-10-18T21:04:00;10.80;99.90
25985;DHT22;40000;53.848;10.658;2022-10-18T21:09:07;10.90;99.90
25985;DHT22;40000;53.848;10.658;2022-10-18T21:14:16;11.00;99.90
25985;DHT22;40000;53.848;10.658;2022-10-18T21:19:25;10.90;99.90
25985;DHT22;40000;53.848;10.658;2022-10-18T21:24:26;10.90;99.90
25985;DHT22;40000;53.848;10.658;2022-10-18T21:29:27;10.70;99.90
25985;DHT22;40000;53.848;10.658;2022-10-18T21:34:30;10.70;99.90
25985;DHT22;40000;53.848;10.658;2022-10-18T21:39:30;10.70;99.90
25985;DHT22;40000;53.848;10.658;2022-10-18T21:44:31;10.70;99.90
25985;DHT22;40000;53.848;10.658;2022-10-18T21:49:32;10.80;99.90
25985;DHT22;40000;53.848;10.658;2022-10-18T21:54:34;10.90;99.90
25985;DHT22;40000;53.848;10.658;2022-10-18T21:59:35;11.00;99.90
25985;DHT22;40000;53.848;10.658;2022-10-18T22:04:35;11.10;99.90
25985;DHT22;40000;53.848;10.658;2022-10-18T22:09:36;11.20;99.90
25985;DHT22;40000;53.848;10.658;2022-10-18T22:14:37;11.30;99.90
25985;DHT22;40000;53.848;10.658;2022-10-18T22:19:37;11.40;99.90
25985;DHT22;40000;53.848;10.658;2022-10-18T22:24:38;11.40;99.90
25985;DHT22;40000;53.848;10.658;2022-10-18T22:29:39;11.40;99.90
25985;DHT22;40000;53.848;10.658;2022-10-18T22:34:40;11.40;99.90
25985;DHT22;40000;53.848;10.658;2022-10-18T22:39:40;11.40;99.90
25985;DHT22;40000;53.848;10.658;2022-10-18T22:44:41;11.30;99.90
25985;DHT22;40000;53.848;10.658;2022-10-18T22:49:42;11.30;99.90
25985;DHT22;40000;53.848;10.658;2022-10-18T22:54:42;11.20;99.90
25985;DHT22;40000;53.848;10.658;2022-10-18T22:59:43;11.00;99.90
25985;DHT22;40000;53.848;10.658;2022-10-18T23:04:43;10.90;99.90
25985;DHT22;40000;53.848;10.658;2022-10-18T23:09:49;10.70;99.90
25985;DHT22;40000;53.848;10.658;2022-10-18T23:14:51;10.60;99.90
25985;DHT22;40000;53.848;10.658;2022-10-18T23:19:51;10.70;99.90
25985;DHT22;40000;53.848;10.658;2022-10-18T23:24:52;10.70;99.90
25985;DHT22;40000;53.848;10.658;2022-10-18T23:29:53;10.70;99.90
25985;DHT22;40000;53.848;10.658;2022-10-18T23:34:54;10.80;99.90
25985;DHT22;40000;53.848;10.658;2022-10-18T23:39:54;10.90;99.90
25985;DHT22;40000;53.848;10.658;2022-10-18T23:44:55;10.90;99.90
25985;DHT22;40000;53.848;10.658;2022-10-18T23:49:56;10.80;99.90
25985;DHT22;40000;53.848;10.658;2022-10-18T23:54:58;10.70;99.90
25985;DHT22;40000;53.848;10.658;2022-10-18T23:59:58;10.70;99.90
